sensor_id;sensor_type;location;lat;lon;timestamp;P1;durP1;ratioP1;P2;durP2;ratioP2
19207;SDS011;9737;59.466;18.036;2023-03-23T00:01:03;12.85;;;2.50;;
19207;SDS011;9737;59.466;18.036;2023-03-23T00:03:30;10.65;;;2.67;;
19207;SDS011;9737;59.466;18.036;2023-03-23T00:05:57;14.00;;;3.20;;
19207;SDS011;9737;59.466;18.036;2023-03-23T00:08:30;14.95;;;3.67;;
19207;SDS011;9737;59.466;18.036;2023-03-23T00:10:57;13.10;;;2.83;;
19207;SDS011;9737;59.466;18.036;2023-03-23T00:13:28;18.52;;;3.28;;
19207;SDS011;9737;59.466;18.036;2023-03-23T00:15:55;13.07;;;2.60;;
19207;SDS011;9737;59.466;18.036;2023-03-23T00:18:23;22.60;;;3.25;;
19207;SDS011;9737;59.466;18.036;2023-03-23T00:20:50;10.85;;;3.25;;
19207;SDS011;9737;59.466;18.036;2023-03-23T00:23:18;20.80;;;4.78;;
19207;SDS011;9737;59.466;18.036;2023-03-23T00:25:48;18.25;;;3.60;;
19207;SDS011;9737;59.466;18.036;2023-03-23T00:28:18;16.90;;;3.25;;
19207;SDS011;9737;59.466;18.036;2023-03-23T00:30:54;14.63;;;3.80;;
19207;SDS011;9737;59.466;18.036;2023-03-23T00:33:23;16.73;;;3.05;;
19207;SDS011;9737;59.466;18.036;2023-03-23T00:35:51;26.92;;;3.78;;
19207;SDS011;9737;59.466;18.036;2023-03-23T00:38:19;18.45;;;3.63;;
19207;SDS011;9737;59.466;18.036;2023-03-23T00:40:47;20.80;;;3.53;;
19207;SDS011;9737;59.466;18.036;2023-03-23T00:43:14;23.40;;;4.28;;
19207;SDS011;9737;59.466;18.036;2023-03-23T00:45:41;21.70;;;4.15;;
19207;SDS011;9737;59.466;18.036;2023-03-23T00:48:11;20.63;;;4.18;;
19207;SDS011;9737;59.466;18.036;2023-03-23T00:50:38;15.52;;;4.05;;
19207;SDS011;9737;59.466;18.036;2023-03-23T00:53:05;25.55;;;3.80;;
19207;SDS011;9737;59.466;18.036;2023-03-23T00:55:32;16.80;;;3.90;;
19207;SDS011;9737;59.466;18.036;2023-03-23T00:58:00;20.50;;;3.88;;
19207;SDS011;9737;59.466;18.036;2023-03-23T01:00:27;24.30;;;3.88;;
19207;SDS011;9737;59.466;18.036;2023-03-23T01:02:54;19.63;;;4.25;;
19207;SDS011;9737;59.466;18.036;2023-03-23T01:05:22;28.88;;;5.18;;
19207;SDS011;9737;59.466;18.036;2023-03-23T01:07:48;20.17;;;3.70;;
19207;SDS011;9737;59.466;18.036;2023-03-23T01:10:15;20.63;;;4.22;;
19207;SDS011;9737;59.466;18.036;2023-03-23T01:12:44;15.40;;;3.50;;
19207;SDS011;9737;59.466;18.036;2023-03-23T01:15:13;18.38;;;4.47;;
19207;SDS011;9737;59.466;18.036;2023-03-23T01:17:41;16.23;;;3.70;;
19207;SDS011;9737;59.466;18.036;2023-03-23T01:20:09;22.85;;;4.00;;
19207;SDS011;9737;59.466;18.036;2023-03-23T01:22:37;21.83;;;4.28;;
19207;SDS011;9737;59.466;18.036;2023-03-23T01:25:05;33.17;;;4.13;;
19207;SDS011;9737;59.466;18.036;2023-03-23T01:27:32;21.23;;;3.70;;
19207;SDS011;9737;59.466;18.036;2023-03-23T01:29:59;22.48;;;4.18;;
19207;SDS011;9737;59.466;18.036;2023-03-23T01:32:26;22.75;;;3.55;;
19207;SDS011;9737;59.466;18.036;2023-03-23T01:34:53;26.50;;;4.82;;
19207;SDS011;9737;59.466;18.036;2023-03-23T01:37:20;24.63;;;3.90;;
19207;SDS011;9737;59.466;18.036;2023-03-23T01:39:53;17.17;;;3.47;;
19207;SDS011;9737;59.466;18.036;2023-03-23T01:42:21;23.05;;;4.15;;
19207;SDS011;9737;59.466;18.036;2023-03-23T01:47:55;17.35;;;4.90;;
19207;SDS011;9737;59.466;18.036;2023-03-23T01:50:26;27.40;;;3.78;;
19207;SDS011;9737;59.466;18.036;2023-03-23T01:52:56;22.98;;;3.65;;
19207;SDS011;9737;59.466;18.036;2023-03-23T01:55:27;21.05;;;4.35;;
19207;SDS011;9737;59.466;18.036;2023-03-23T01:57:55;21.00;;;3.95;;
19207;SDS011;9737;59.466;18.036;2023-03-23T02:00:23;19.23;;;3.70;;
19207;SDS011;9737;59.466;18.036;2023-03-23T02:02:51;25.45;;;4.80;;
19207;SDS011;9737;59.466;18.036;2023-03-23T02:05:22;20.00;;;4.10;;
19207;SDS011;9737;59.466;18.036;2023-03-23T02:07:56;19.08;;;5.07;;
19207;SDS011;9737;59.466;18.036;2023-03-23T02:10:29;21.50;;;4.30;;
19207;SDS011;9737;59.466;18.036;2023-03-23T02:12:57;29.05;;;4.60;;
19207;SDS011;9737;59.466;18.036;2023-03-23T02:15:25;24.05;;;3.92;;
19207;SDS011;9737;59.466;18.036;2023-03-23T02:17:57;31.77;;;5.18;;
19207;SDS011;9737;59.466;18.036;2023-03-23T02:20:41;22.35;;;4.72;;
19207;SDS011;9737;59.466;18.036;2023-03-23T02:23:42;15.52;;;3.60;;
19207;SDS011;9737;59.466;18.036;2023-03-23T02:26:30;32.20;;;4.63;;
19207;SDS011;9737;59.466;18.036;2023-03-23T02:29:13;20.52;;;3.90;;
19207;SDS011;9737;59.466;18.036;2023-03-23T02:31:57;20.65;;;4.25;;
19207;SDS011;9737;59.466;18.036;2023-03-23T02:34:35;20.65;;;3.90;;
19207;SDS011;9737;59.466;18.036;2023-03-23T02:37:08;18.45;;;3.55;;
19207;SDS011;9737;59.466;18.036;2023-03-23T02:39:40;27.80;;;4.28;;
19207;SDS011;9737;59.466;18.036;2023-03-23T02:42:10;23.55;;;5.45;;
19207;SDS011;9737;59.466;18.036;2023-03-23T02:44:43;28.63;;;4.03;;
19207;SDS011;9737;59.466;18.036;2023-03-23T02:47:12;19.77;;;4.55;;
19207;SDS011;9737;59.466;18.036;2023-03-23T02:49:45;33.95;;;4.05;;
19207;SDS011;9737;59.466;18.036;2023-03-23T02:52:14;22.95;;;3.78;;
19207;SDS011;9737;59.466;18.036;2023-03-23T02:54:44;27.08;;;3.70;;
19207;SDS011;9737;59.466;18.036;2023-03-23T02:57:14;24.85;;;4.57;;
19207;SDS011;9737;59.466;18.036;2023-03-23T02:59:41;29.15;;;4.95;;
19207;SDS011;9737;59.466;18.036;2023-03-23T03:02:09;29.50;;;5.40;;
19207;SDS011;9737;59.466;18.036;2023-03-23T03:04:40;24.30;;;4.38;;
19207;SDS011;9737;59.466;18.036;2023-03-23T03:07:17;26.48;;;3.90;;
19207;SDS011;9737;59.466;18.036;2023-03-23T03:10:04;28.10;;;4.38;;
19207;SDS011;9737;59.466;18.036;2023-03-23T03:12:41;24.63;;;4.97;;
19207;SDS011;9737;59.466;18.036;2023-03-23T03:15:15;29.80;;;4.55;;
19207;SDS011;9737;59.466;18.036;2023-03-23T03:17:53;24.42;;;5.50;;
19207;SDS011;9737;59.466;18.036;2023-03-23T03:20:26;22.48;;;4.07;;
19207;SDS011;9737;59.466;18.036;2023-03-23T03:22:56;29.17;;;4.68;;
19207;SDS011;9737;59.466;18.036;2023-03-23T03:25:24;24.05;;;4.80;;
19207;SDS011;9737;59.466;18.036;2023-03-23T03:27:52;23.65;;;3.88;;
19207;SDS011;9737;59.466;18.036;2023-03-23T03:30:20;24.70;;;4.43;;
19207;SDS011;9737;59.466;18.036;2023-03-23T03:32:52;31.30;;;4.60;;
19207;SDS011;9737;59.466;18.036;2023-03-23T03:35:20;29.08;;;4.32;;
19207;SDS011;9737;59.466;18.036;2023-03-23T03:37:48;22.65;;;4.22;;
19207;SDS011;9737;59.466;18.036;2023-03-23T03:40:18;22.38;;;4.22;;
19207;SDS011;9737;59.466;18.036;2023-03-23T03:42:46;20.92;;;4.32;;
19207;SDS011;9737;59.466;18.036;2023-03-23T03:45:14;24.70;;;4.70;;
19207;SDS011;9737;59.466;18.036;2023-03-23T03:47:42;23.15;;;4.30;;
19207;SDS011;9737;59.466;18.036;2023-03-23T03:50:09;24.02;;;4.15;;
19207;SDS011;9737;59.466;18.036;2023-03-23T03:52:37;29.23;;;5.03;;
19207;SDS011;9737;59.466;18.036;2023-03-23T03:55:05;25.88;;;4.63;;
19207;SDS011;9737;59.466;18.036;2023-03-23T03:57:34;26.70;;;4.13;;
19207;SDS011;9737;59.466;18.036;2023-03-23T04:00:01;23.73;;;4.38;;
19207;SDS011;9737;59.466;18.036;2023-03-23T04:02:38;28.10;;;5.90;;
19207;SDS011;9737;59.466;18.036;2023-03-23T04:05:06;24.52;;;4.03;;
19207;SDS011;9737;59.466;18.036;2023-03-23T04:07:34;24.98;;;4.35;;
19207;SDS011;9737;59.466;18.036;2023-03-23T04:10:04;25.70;;;4.55;;
19207;SDS011;9737;59.466;18.036;2023-03-23T04:12:31;24.02;;;5.45;;
19207;SDS011;9737;59.466;18.036;2023-03-23T04:14:59;32.80;;;4.85;;
19207;SDS011;9737;59.466;18.036;2023-03-23T04:17:26;23.85;;;4.05;;
19207;SDS011;9737;59.466;18.036;2023-03-23T04:19:53;23.10;;;4.40;;
19207;SDS011;9737;59.466;18.036;2023-03-23T04:22:22;25.85;;;4.05;;
19207;SDS011;9737;59.466;18.036;2023-03-23T04:24:56;25.42;;;4.25;;
19207;SDS011;9737;59.466;18.036;2023-03-23T04:27:25;31.75;;;4.95;;
19207;SDS011;9737;59.466;18.036;2023-03-23T04:29:54;18.52;;;4.15;;
19207;SDS011;9737;59.466;18.036;2023-03-23T04:32:24;25.83;;;3.90;;
19207;SDS011;9737;59.466;18.036;2023-03-23T04:34:54;27.23;;;4.03;;
19207;SDS011;9737;59.466;18.036;2023-03-23T04:37:21;21.60;;;4.18;;
19207;SDS011;9737;59.466;18.036;2023-03-23T04:39:54;25.13;;;4.28;;
19207;SDS011;9737;59.466;18.036;2023-03-23T04:42:26;23.05;;;4.60;;
19207;SDS011;9737;59.466;18.036;2023-03-23T04:44:54;27.88;;;4.63;;
19207;SDS011;9737;59.466;18.036;2023-03-23T04:47:21;25.90;;;4.20;;
19207;SDS011;9737;59.466;18.036;2023-03-23T04:49:50;26.85;;;4.53;;
19207;SDS011;9737;59.466;18.036;2023-03-23T04:52:17;22.05;;;4.20;;
19207;SDS011;9737;59.466;18.036;2023-03-23T04:54:45;25.33;;;4.38;;
19207;SDS011;9737;59.466;18.036;2023-03-23T04:57:12;23.27;;;4.28;;
19207;SDS011;9737;59.466;18.036;2023-03-23T04:59:40;21.83;;;4.07;;
19207;SDS011;9737;59.466;18.036;2023-03-23T05:02:08;32.22;;;4.32;;
19207;SDS011;9737;59.466;18.036;2023-03-23T05:04:36;23.95;;;4.03;;
19207;SDS011;9737;59.466;18.036;2023-03-23T05:07:04;25.33;;;4.25;;
19207;SDS011;9737;59.466;18.036;2023-03-23T05:09:31;26.17;;;4.45;;
19207;SDS011;9737;59.466;18.036;2023-03-23T05:12:02;22.17;;;4.20;;
19207;SDS011;9737;59.466;18.036;2023-03-23T05:14:30;18.45;;;4.40;;
19207;SDS011;9737;59.466;18.036;2023-03-23T05:16:57;30.63;;;4.90;;
19207;SDS011;9737;59.466;18.036;2023-03-23T05:19:24;20.38;;;4.00;;
19207;SDS011;9737;59.466;18.036;2023-03-23T05:21:51;20.33;;;4.45;;
19207;SDS011;9737;59.466;18.036;2023-03-23T05:24:20;25.38;;;4.30;;
19207;SDS011;9737;59.466;18.036;2023-03-23T05:26:47;23.90;;;4.30;;
19207;SDS011;9737;59.466;18.036;2023-03-23T05:29:17;20.05;;;4.20;;
19207;SDS011;9737;59.466;18.036;2023-03-23T05:31:44;29.27;;;5.75;;
19207;SDS011;9737;59.466;18.036;2023-03-23T05:34:11;29.00;;;5.15;;
19207;SDS011;9737;59.466;18.036;2023-03-23T05:36:38;23.90;;;4.47;;
19207;SDS011;9737;59.466;18.036;2023-03-23T05:39:04;33.90;;;5.72;;
19207;SDS011;9737;59.466;18.036;2023-03-23T05:41:32;26.52;;;3.85;;
19207;SDS011;9737;59.466;18.036;2023-03-23T05:43:59;28.17;;;5.45;;
19207;SDS011;9737;59.466;18.036;2023-03-23T05:46:26;22.23;;;4.50;;
19207;SDS011;9737;59.466;18.036;2023-03-23T05:48:52;23.35;;;4.40;;
19207;SDS011;9737;59.466;18.036;2023-03-23T05:51:20;27.88;;;4.82;;
19207;SDS011;9737;59.466;18.036;2023-03-23T05:53:46;29.83;;;4.28;;
19207;SDS011;9737;59.466;18.036;2023-03-23T05:56:13;22.33;;;4.40;;
19207;SDS011;9737;59.466;18.036;2023-03-23T05:58:42;18.73;;;3.90;;
19207;SDS011;9737;59.466;18.036;2023-03-23T06:01:08;21.65;;;3.72;;
19207;SDS011;9737;59.466;18.036;2023-03-23T06:03:37;26.17;;;4.13;;
19207;SDS011;9737;59.466;18.036;2023-03-23T06:06:04;18.10;;;4.40;;
19207;SDS011;9737;59.466;18.036;2023-03-23T06:08:33;26.40;;;4.63;;
19207;SDS011;9737;59.466;18.036;2023-03-23T06:11:02;25.42;;;4.90;;
19207;SDS011;9737;59.466;18.036;2023-03-23T06:13:28;21.20;;;4.30;;
19207;SDS011;9737;59.466;18.036;2023-03-23T06:15:57;27.17;;;3.90;;
19207;SDS011;9737;59.466;18.036;2023-03-23T06:18:24;28.00;;;4.78;;
19207;SDS011;9737;59.466;18.036;2023-03-23T06:20:52;18.85;;;4.75;;
19207;SDS011;9737;59.466;18.036;2023-03-23T06:23:19;25.27;;;4.28;;
19207;SDS011;9737;59.466;18.036;2023-03-23T06:25:46;17.95;;;4.15;;
19207;SDS011;9737;59.466;18.036;2023-03-23T06:28:12;21.70;;;4.00;;
19207;SDS011;9737;59.466;18.036;2023-03-23T06:30:40;22.90;;;4.70;;
19207;SDS011;9737;59.466;18.036;2023-03-23T06:33:08;29.52;;;4.55;;
19207;SDS011;9737;59.466;18.036;2023-03-23T06:35:36;15.15;;;3.53;;
19207;SDS011;9737;59.466;18.036;2023-03-23T06:38:03;24.45;;;4.20;;
19207;SDS011;9737;59.466;18.036;2023-03-23T06:40:29;13.82;;;3.70;;
19207;SDS011;9737;59.466;18.036;2023-03-23T06:42:56;26.02;;;4.70;;
19207;SDS011;9737;59.466;18.036;2023-03-23T06:45:24;17.08;;;4.43;;
19207;SDS011;9737;59.466;18.036;2023-03-23T06:47:51;26.27;;;4.15;;
19207;SDS011;9737;59.466;18.036;2023-03-23T06:50:19;24.48;;;4.20;;
19207;SDS011;9737;59.466;18.036;2023-03-23T06:52:46;24.83;;;4.00;;
19207;SDS011;9737;59.466;18.036;2023-03-23T06:55:13;23.50;;;4.00;;
19207;SDS011;9737;59.466;18.036;2023-03-23T06:57:40;16.65;;;4.22;;
19207;SDS011;9737;59.466;18.036;2023-03-23T07:00:07;19.13;;;4.20;;
19207;SDS011;9737;59.466;18.036;2023-03-23T07:02:37;22.23;;;3.70;;
19207;SDS011;9737;59.466;18.036;2023-03-23T07:05:04;22.15;;;4.03;;
19207;SDS011;9737;59.466;18.036;2023-03-23T07:07:32;25.38;;;4.47;;
19207;SDS011;9737;59.466;18.036;2023-03-23T07:09:59;17.42;;;3.70;;
19207;SDS011;9737;59.466;18.036;2023-03-23T07:12:26;25.70;;;3.92;;
19207;SDS011;9737;59.466;18.036;2023-03-23T07:14:54;22.75;;;3.70;;
19207;SDS011;9737;59.466;18.036;2023-03-23T07:17:20;25.23;;;5.00;;
19207;SDS011;9737;59.466;18.036;2023-03-23T07:19:47;22.05;;;4.05;;
19207;SDS011;9737;59.466;18.036;2023-03-23T07:22:14;21.85;;;3.78;;
19207;SDS011;9737;59.466;18.036;2023-03-23T07:24:42;18.88;;;3.85;;
19207;SDS011;9737;59.466;18.036;2023-03-23T07:27:09;20.63;;;3.88;;
19207;SDS011;9737;59.466;18.036;2023-03-23T07:29:35;26.30;;;3.92;;
19207;SDS011;9737;59.466;18.036;2023-03-23T07:32:04;27.10;;;4.45;;
19207;SDS011;9737;59.466;18.036;2023-03-23T07:34:31;17.77;;;3.40;;
19207;SDS011;9737;59.466;18.036;2023-03-23T07:36:58;19.85;;;3.88;;
19207;SDS011;9737;59.466;18.036;2023-03-23T07:39:25;18.50;;;3.35;;
19207;SDS011;9737;59.466;18.036;2023-03-23T07:41:53;20.85;;;3.80;;
19207;SDS011;9737;59.466;18.036;2023-03-23T07:44:20;24.10;;;4.60;;
19207;SDS011;9737;59.466;18.036;2023-03-23T07:46:47;26.77;;;4.22;;
19207;SDS011;9737;59.466;18.036;2023-03-23T07:49:13;16.00;;;3.67;;
19207;SDS011;9737;59.466;18.036;2023-03-23T07:51:40;15.35;;;3.80;;
19207;SDS011;9737;59.466;18.036;2023-03-23T07:54:07;19.50;;;3.70;;
19207;SDS011;9737;59.466;18.036;2023-03-23T07:56:34;19.23;;;3.83;;
19207;SDS011;9737;59.466;18.036;2023-03-23T07:59:03;21.08;;;3.55;;
19207;SDS011;9737;59.466;18.036;2023-03-23T08:01:30;19.08;;;3.85;;
19207;SDS011;9737;59.466;18.036;2023-03-23T08:03:58;17.75;;;3.38;;
19207;SDS011;9737;59.466;18.036;2023-03-23T08:06:25;17.20;;;3.58;;
19207;SDS011;9737;59.466;18.036;2023-03-23T08:08:52;19.23;;;3.60;;
19207;SDS011;9737;59.466;18.036;2023-03-23T08:11:20;18.05;;;4.00;;
19207;SDS011;9737;59.466;18.036;2023-03-23T08:13:47;19.33;;;4.38;;
19207;SDS011;9737;59.466;18.036;2023-03-23T08:16:15;22.52;;;3.88;;
19207;SDS011;9737;59.466;18.036;2023-03-23T08:18:44;21.35;;;4.03;;
19207;SDS011;9737;59.466;18.036;2023-03-23T08:21:11;20.75;;;3.53;;
19207;SDS011;9737;59.466;18.036;2023-03-23T08:23:39;14.95;;;3.40;;
19207;SDS011;9737;59.466;18.036;2023-03-23T08:26:06;16.55;;;3.42;;
19207;SDS011;9737;59.466;18.036;2023-03-23T08:28:34;16.10;;;3.03;;
19207;SDS011;9737;59.466;18.036;2023-03-23T08:31:05;18.98;;;3.60;;
19207;SDS011;9737;59.466;18.036;2023-03-23T08:33:34;16.58;;;3.85;;
19207;SDS011;9737;59.466;18.036;2023-03-23T08:36:01;19.90;;;3.65;;
19207;SDS011;9737;59.466;18.036;2023-03-23T08:38:29;16.20;;;3.10;;
19207;SDS011;9737;59.466;18.036;2023-03-23T08:40:57;15.93;;;3.42;;
19207;SDS011;9737;59.466;18.036;2023-03-23T08:43:24;19.27;;;3.25;;
19207;SDS011;9737;59.466;18.036;2023-03-23T08:45:51;16.10;;;3.60;;
19207;SDS011;9737;59.466;18.036;2023-03-23T08:48:18;17.30;;;3.67;;
19207;SDS011;9737;59.466;18.036;2023-03-23T08:50:46;20.73;;;3.58;;
19207;SDS011;9737;59.466;18.036;2023-03-23T08:53:12;15.05;;;3.33;;
19207;SDS011;9737;59.466;18.036;2023-03-23T08:55:39;19.63;;;3.33;;
19207;SDS011;9737;59.466;18.036;2023-03-23T08:58:06;13.85;;;3.25;;
19207;SDS011;9737;59.466;18.036;2023-03-23T09:00:33;14.75;;;3.20;;
19207;SDS011;9737;59.466;18.036;2023-03-23T09:03:00;18.52;;;3.08;;
19207;SDS011;9737;59.466;18.036;2023-03-23T09:05:28;13.15;;;2.95;;
19207;SDS011;9737;59.466;18.036;2023-03-23T09:07:57;18.77;;;3.17;;
19207;SDS011;9737;59.466;18.036;2023-03-23T09:10:25;20.23;;;3.90;;
19207;SDS011;9737;59.466;18.036;2023-03-23T09:12:53;14.63;;;3.20;;
19207;SDS011;9737;59.466;18.036;2023-03-23T09:15:21;16.10;;;3.38;;
19207;SDS011;9737;59.466;18.036;2023-03-23T09:17:49;17.15;;;3.42;;
19207;SDS011;9737;59.466;18.036;2023-03-23T09:20:18;28.48;;;3.70;;
19207;SDS011;9737;59.466;18.036;2023-03-23T09:22:46;18.33;;;3.13;;
19207;SDS011;9737;59.466;18.036;2023-03-23T09:25:17;25.27;;;3.22;;
19207;SDS011;9737;59.466;18.036;2023-03-23T09:27:48;16.20;;;3.20;;
19207;SDS011;9737;59.466;18.036;2023-03-23T09:30:18;17.92;;;3.58;;
19207;SDS011;9737;59.466;18.036;2023-03-23T09:32:45;15.00;;;3.33;;
19207;SDS011;9737;59.466;18.036;2023-03-23T09:35:14;10.93;;;3.17;;
19207;SDS011;9737;59.466;18.036;2023-03-23T09:37:42;12.30;;;3.10;;
19207;SDS011;9737;59.466;18.036;2023-03-23T09:40:11;18.33;;;3.42;;
19207;SDS011;9737;59.466;18.036;2023-03-23T09:42:45;11.95;;;3.03;;
19207;SDS011;9737;59.466;18.036;2023-03-23T09:45:22;12.00;;;3.30;;
19207;SDS011;9737;59.466;18.036;2023-03-23T09:47:59;16.30;;;3.15;;
19207;SDS011;9737;59.466;18.036;2023-03-23T09:50:34;17.35;;;3.38;;
19207;SDS011;9737;59.466;18.036;2023-03-23T09:53:05;10.40;;;2.80;;
19207;SDS011;9737;59.466;18.036;2023-03-23T09:55:36;13.38;;;3.35;;
19207;SDS011;9737;59.466;18.036;2023-03-23T09:58:10;13.55;;;2.83;;
19207;SDS011;9737;59.466;18.036;2023-03-23T10:00:45;14.60;;;3.10;;
19207;SDS011;9737;59.466;18.036;2023-03-23T10:03:16;11.45;;;2.80;;
19207;SDS011;9737;59.466;18.036;2023-03-23T10:05:46;12.73;;;3.15;;
19207;SDS011;9737;59.466;18.036;2023-03-23T10:08:15;13.48;;;3.00;;
19207;SDS011;9737;59.466;18.036;2023-03-23T10:10:46;13.93;;;2.95;;
19207;SDS011;9737;59.466;18.036;2023-03-23T10:13:25;15.88;;;3.03;;
19207;SDS011;9737;59.466;18.036;2023-03-23T10:16:02;13.65;;;2.80;;
19207;SDS011;9737;59.466;18.036;2023-03-23T10:18:32;12.50;;;2.55;;
19207;SDS011;9737;59.466;18.036;2023-03-23T10:21:03;15.73;;;3.25;;
19207;SDS011;9737;59.466;18.036;2023-03-23T10:26:22;20.33;;;3.10;;
19207;SDS011;9737;59.466;18.036;2023-03-23T10:29:09;12.85;;;2.92;;
19207;SDS011;9737;59.466;18.036;2023-03-23T10:31:43;15.38;;;3.30;;
19207;SDS011;9737;59.466;18.036;2023-03-23T10:34:17;14.20;;;3.17;;
19207;SDS011;9737;59.466;18.036;2023-03-23T10:36:52;14.98;;;3.40;;
19207;SDS011;9737;59.466;18.036;2023-03-23T10:39:27;11.48;;;2.70;;
19207;SDS011;9737;59.466;18.036;2023-03-23T10:41:59;9.98;;;2.97;;
19207;SDS011;9737;59.466;18.036;2023-03-23T10:44:33;10.93;;;2.72;;
19207;SDS011;9737;59.466;18.036;2023-03-23T10:47:05;12.45;;;2.88;;
19207;SDS011;9737;59.466;18.036;2023-03-23T10:49:34;13.65;;;2.63;;
19207;SDS011;9737;59.466;18.036;2023-03-23T10:52:09;11.45;;;2.85;;
19207;SDS011;9737;59.466;18.036;2023-03-23T10:54:46;17.23;;;2.90;;
19207;SDS011;9737;59.466;18.036;2023-03-23T10:57:21;12.38;;;2.88;;
19207;SDS011;9737;59.466;18.036;2023-03-23T10:59:57;14.88;;;2.67;;
19207;SDS011;9737;59.466;18.036;2023-03-23T11:02:26;10.98;;;2.88;;
19207;SDS011;9737;59.466;18.036;2023-03-23T11:04:56;11.25;;;2.30;;
19207;SDS011;9737;59.466;18.036;2023-03-23T11:07:27;15.88;;;2.70;;
19207;SDS011;9737;59.466;18.036;2023-03-23T11:09:56;15.25;;;3.28;;
19207;SDS011;9737;59.466;18.036;2023-03-23T11:12:32;15.32;;;3.33;;
19207;SDS011;9737;59.466;18.036;2023-03-23T11:15:09;14.02;;;2.70;;
19207;SDS011;9737;59.466;18.036;2023-03-23T11:17:54;16.02;;;3.55;;
19207;SDS011;9737;59.466;18.036;2023-03-23T11:20:22;12.57;;;3.30;;
19207;SDS011;9737;59.466;18.036;2023-03-23T11:22:49;16.45;;;2.70;;
19207;SDS011;9737;59.466;18.036;2023-03-23T11:25:16;15.63;;;2.88;;
19207;SDS011;9737;59.466;18.036;2023-03-23T11:27:43;16.98;;;2.83;;
19207;SDS011;9737;59.466;18.036;2023-03-23T11:30:14;12.23;;;2.97;;
19207;SDS011;9737;59.466;18.036;2023-03-23T11:32:48;12.10;;;3.05;;
19207;SDS011;9737;59.466;18.036;2023-03-23T11:35:16;10.85;;;2.85;;
19207;SDS011;9737;59.466;18.036;2023-03-23T11:37:47;12.18;;;2.72;;
19207;SDS011;9737;59.466;18.036;2023-03-23T11:40:18;16.48;;;3.10;;
19207;SDS011;9737;59.466;18.036;2023-03-23T11:42:46;11.00;;;2.75;;
19207;SDS011;9737;59.466;18.036;2023-03-23T11:45:18;11.38;;;2.55;;
19207;SDS011;9737;59.466;18.036;2023-03-23T11:47:53;14.80;;;3.15;;
19207;SDS011;9737;59.466;18.036;2023-03-23T11:50:26;12.32;;;3.22;;
19207;SDS011;9737;59.466;18.036;2023-03-23T11:52:58;16.77;;;2.90;;
19207;SDS011;9737;59.466;18.036;2023-03-23T11:55:31;22.25;;;2.80;;
19207;SDS011;9737;59.466;18.036;2023-03-23T11:58:06;14.35;;;2.95;;
19207;SDS011;9737;59.466;18.036;2023-03-23T12:00:40;34.53;;;4.35;;
19207;SDS011;9737;59.466;18.036;2023-03-23T12:03:12;17.38;;;3.10;;
19207;SDS011;9737;59.466;18.036;2023-03-23T12:05:43;13.70;;;2.65;;
19207;SDS011;9737;59.466;18.036;2023-03-23T12:08:17;14.73;;;3.17;;
19207;SDS011;9737;59.466;18.036;2023-03-23T12:10:58;11.82;;;2.55;;
19207;SDS011;9737;59.466;18.036;2023-03-23T12:13:42;16.63;;;2.72;;
19207;SDS011;9737;59.466;18.036;2023-03-23T12:16:29;13.50;;;2.75;;
19207;SDS011;9737;59.466;18.036;2023-03-23T12:19:08;18.55;;;3.20;;
19207;SDS011;9737;59.466;18.036;2023-03-23T12:21:44;15.88;;;3.20;;
19207;SDS011;9737;59.466;18.036;2023-03-23T12:24:21;9.15;;;2.63;;
19207;SDS011;9737;59.466;18.036;2023-03-23T12:26:59;35.83;;;4.10;;
19207;SDS011;9737;59.466;18.036;2023-03-23T12:29:35;9.93;;;2.83;;
19207;SDS011;9737;59.466;18.036;2023-03-23T12:35:11;12.82;;;2.60;;
19207;SDS011;9737;59.466;18.036;2023-03-23T12:37:52;14.27;;;2.95;;
19207;SDS011;9737;59.466;18.036;2023-03-23T12:43:26;78.38;;;5.35;;
19207;SDS011;9737;59.466;18.036;2023-03-23T12:46:01;24.48;;;3.47;;
19207;SDS011;9737;59.466;18.036;2023-03-23T12:48:48;16.73;;;2.95;;
19207;SDS011;9737;59.466;18.036;2023-03-23T12:51:20;27.08;;;3.17;;
19207;SDS011;9737;59.466;18.036;2023-03-23T12:53:55;12.07;;;2.70;;
19207;SDS011;9737;59.466;18.036;2023-03-23T12:56:29;16.75;;;2.83;;
19207;SDS011;9737;59.466;18.036;2023-03-23T12:59:03;13.45;;;2.72;;
19207;SDS011;9737;59.466;18.036;2023-03-23T13:01:41;12.63;;;3.15;;
19207;SDS011;9737;59.466;18.036;2023-03-23T13:04:13;14.23;;;2.80;;
19207;SDS011;9737;59.466;18.036;2023-03-23T13:06:43;12.45;;;2.72;;
19207;SDS011;9737;59.466;18.036;2023-03-23T13:09:12;16.10;;;3.13;;
19207;SDS011;9737;59.466;18.036;2023-03-23T13:11:43;25.05;;;3.50;;
19207;SDS011;9737;59.466;18.036;2023-03-23T13:17:06;12.23;;;2.90;;
19207;SDS011;9737;59.466;18.036;2023-03-23T13:19:53;14.70;;;2.97;;
19207;SDS011;9737;59.466;18.036;2023-03-23T13:22:33;13.30;;;2.83;;
19207;SDS011;9737;59.466;18.036;2023-03-23T13:25:06;9.57;;;2.65;;
19207;SDS011;9737;59.466;18.036;2023-03-23T13:27:39;15.13;;;2.65;;
19207;SDS011;9737;59.466;18.036;2023-03-23T13:30:16;10.93;;;2.40;;
19207;SDS011;9737;59.466;18.036;2023-03-23T13:32:49;12.48;;;2.58;;
19207;SDS011;9737;59.466;18.036;2023-03-23T13:35:19;13.73;;;2.78;;
19207;SDS011;9737;59.466;18.036;2023-03-23T13:37:48;13.63;;;2.60;;
19207;SDS011;9737;59.466;18.036;2023-03-23T13:40:23;16.13;;;2.70;;
19207;SDS011;9737;59.466;18.036;2023-03-23T13:42:53;8.55;;;2.15;;
19207;SDS011;9737;59.466;18.036;2023-03-23T13:45:22;38.45;;;3.10;;
19207;SDS011;9737;59.466;18.036;2023-03-23T13:48:02;22.05;;;2.83;;
19207;SDS011;9737;59.466;18.036;2023-03-23T13:50:42;9.02;;;2.30;;
19207;SDS011;9737;59.466;18.036;2023-03-23T13:53:14;17.50;;;3.00;;
19207;SDS011;9737;59.466;18.036;2023-03-23T13:55:48;10.88;;;2.38;;
19207;SDS011;9737;59.466;18.036;2023-03-23T13:58:23;16.05;;;2.80;;
19207;SDS011;9737;59.466;18.036;2023-03-23T14:01:01;13.20;;;2.70;;
19207;SDS011;9737;59.466;18.036;2023-03-23T14:03:38;9.15;;;2.67;;
19207;SDS011;9737;59.466;18.036;2023-03-23T14:06:11;15.05;;;2.70;;
19207;SDS011;9737;59.466;18.036;2023-03-23T14:08:41;11.35;;;2.30;;
19207;SDS011;9737;59.466;18.036;2023-03-23T14:11:11;15.05;;;2.50;;
19207;SDS011;9737;59.466;18.036;2023-03-23T14:13:42;12.70;;;2.35;;
19207;SDS011;9737;59.466;18.036;2023-03-23T14:16:16;16.85;;;2.90;;
19207;SDS011;9737;59.466;18.036;2023-03-23T14:18:50;13.85;;;2.45;;
19207;SDS011;9737;59.466;18.036;2023-03-23T14:21:26;45.17;;;3.33;;
19207;SDS011;9737;59.466;18.036;2023-03-23T14:24:00;11.40;;;3.30;;
19207;SDS011;9737;59.466;18.036;2023-03-23T14:26:28;18.15;;;2.97;;
19207;SDS011;9737;59.466;18.036;2023-03-23T14:28:54;13.02;;;2.58;;
19207;SDS011;9737;59.466;18.036;2023-03-23T14:31:22;10.40;;;2.88;;
19207;SDS011;9737;59.466;18.036;2023-03-23T14:33:51;15.65;;;2.50;;
19207;SDS011;9737;59.466;18.036;2023-03-23T14:36:20;18.55;;;2.97;;
19207;SDS011;9737;59.466;18.036;2023-03-23T14:38:54;12.23;;;2.47;;
19207;SDS011;9737;59.466;18.036;2023-03-23T14:41:27;10.63;;;2.72;;
19207;SDS011;9737;59.466;18.036;2023-03-23T14:43:55;14.60;;;2.70;;
19207;SDS011;9737;59.466;18.036;2023-03-23T14:46:22;16.13;;;2.53;;
19207;SDS011;9737;59.466;18.036;2023-03-23T14:48:51;16.42;;;2.50;;
19207;SDS011;9737;59.466;18.036;2023-03-23T14:51:18;55.03;;;4.15;;
19207;SDS011;9737;59.466;18.036;2023-03-23T14:53:47;36.30;;;3.88;;
19207;SDS011;9737;59.466;18.036;2023-03-23T14:56:18;15.30;;;2.85;;
19207;SDS011;9737;59.466;18.036;2023-03-23T14:58:47;20.25;;;3.35;;
19207;SDS011;9737;59.466;18.036;2023-03-23T15:01:17;26.63;;;3.35;;
19207;SDS011;9737;59.466;18.036;2023-03-23T15:03:51;15.07;;;2.72;;
19207;SDS011;9737;59.466;18.036;2023-03-23T15:06:21;25.63;;;3.28;;
19207;SDS011;9737;59.466;18.036;2023-03-23T15:08:54;12.82;;;2.65;;